Dobrodošli na spletni strani vremenske postaje Senovo. Vse informacije so informativnega značaja, saj vremenska postaja ni del državne mreže meteoroloških postaj. AKTUALNIH OBVESTIL NI.


Posebna pozornost v zvezi z vremenskimi dogajanji ni potrebna.    Posebna pozornost v zvezi z vremenskimi dogajanji ni potrebna.

Pogled proti Armezu več informacij Pogled proti Armezu


Bohor več informacij Bohor


Radar strel več informacij blitzortung!


Radar padavin več informacij rain snow radar


Obiščite še:

Template documentation
and downloads

And another site



Weather Underground, zgodovina - Tekstovno

Dnevni povzetek za Oktober 15, 2017 Enote:  Angleško    Metrično   Obe
« Predhodni Dan
Naslednji Dan »
Dnevni Tedenski Mesečni Letni Po meri
  Višja: Nižja: Povprečje:
Temperatura: TemperatureC °F 7.3 °F 12.4 °F
Točka rosišča: DewpointC °F 6.7 °F 10.8 °F
Vlažnost: Humidity % 68 % 90 %
Hitrost vetra: WindSpeedKMH mph 0.0 mph 1 mph
Sunki vetra: WindSpeedGustKMH mph - -
Veter:- - SSW
Zračni tlak: PressurehPa in 1027.0 in -
Padavine: 0.3 in    
Historical Graphs
 
 
Tabelarni podarki za Oktober 15, 2017
Čas Temperatura Točka rosišča Zračni tlak Veter Hitrost vetra Sunki vetra Vlažnost Intenziteta padavin (urna)
TemperatureC °F DewpointC °F PressurehPa in Calm     Humidity % HourlyPrecipMM in
00:04 8.5 °F 7.7 °F 1029.0 in Calm     95 % 0.0 in
00:10 8.5 °F 7.7 °F 1029.0 in Calm     95 % 0.0 in
00:15 8.4 °F 7.7 °F 1029.0 in Calm     95 % 0.0 in
00:20 8.4 °F 7.7 °F 1029.0 in Calm     95 % 0.0 in
00:25 8.3 °F 7.6 °F 1029.0 in Calm     95 % 0.0 in
00:30 8.3 °F 7.6 °F 1029.0 in Calm     95 % 0.0 in
00:35 8.3 °F 7.6 °F 1029.0 in Calm     95 % 0.0 in
00:40 8.3 °F 7.6 °F 1029.0 in Calm     95 % 0.0 in
00:45 8.3 °F 7.6 °F 1029.0 in Calm     95 % 0.0 in
00:50 8.2 °F 7.4 °F 1029.0 in Calm     95 % 0.0 in
00:55 8.2 °F 7.4 °F 1029.0 in Calm     95 % 0.0 in
01:00 8.2 °F 7.4 °F 1029.0 in Calm     95 % 0.0 in
01:05 8.1 °F 7.3 °F 1029.0 in Calm     95 % 0.0 in
01:10 8.1 °F 7.3 °F 1029.0 in Calm     95 % 0.0 in
01:15 8.0 °F 7.2 °F 1029.0 in Calm     95 % 0.0 in
01:20 8.0 °F 7.2 °F 1029.0 in Calm     95 % 0.0 in
01:25 8.0 °F 7.2 °F 1029.0 in Calm     95 % 0.0 in
01:30 7.9 °F 7.3 °F 1029.0 in Calm     96 % 0.0 in
01:35 7.9 °F 7.3 °F 1029.0 in Calm     96 % 0.0 in
01:40 7.9 °F 7.3 °F 1029.0 in Calm     96 % 0.0 in
01:45 7.9 °F 7.3 °F 1029.0 in Calm     96 % 0.0 in
01:50 7.8 °F 7.2 °F 1029.0 in Calm     96 % 0.0 in
01:55 7.8 °F 7.2 °F 1029.0 in Calm     96 % 0.0 in
02:00 7.7 °F 7.1 °F 1029.0 in Calm     96 % 0.0 in
02:05 7.7 °F 7.1 °F 1029.0 in Calm     96 % 0.0 in
02:10 7.7 °F 7.1 °F 1029.0 in Calm     96 % 0.0 in
02:15 7.6 °F 7.0 °F 1029.0 in Calm     96 % 0.0 in
02:20 7.5 °F 6.9 °F 1029.0 in Calm     96 % 0.0 in
02:25 7.5 °F 6.9 °F 1029.0 in Calm     96 % 0.0 in
02:30 7.5 °F 6.9 °F 1029.0 in Calm     96 % 0.0 in
02:35 7.5 °F 6.9 °F 1029.0 in Calm     96 % 0.0 in
02:40 7.4 °F 6.8 °F 1029.0 in Calm     96 % 0.0 in
02:45 7.4 °F 6.8 °F 1029.0 in Calm     96 % 0.0 in
02:50 7.4 °F 6.8 °F 1029.0 in Calm     96 % 0.0 in
02:55 7.4 °F 6.8 °F 1029.0 in Calm     96 % 0.0 in
03:00 7.3 °F 6.7 °F 1029.0 in Calm     96 % 0.0 in
03:05 7.4 °F 6.8 °F 1029.0 in Calm     96 % 0.0 in
03:10 7.4 °F 6.8 °F 1029.0 in Calm     96 % 0.0 in
03:15 7.4 °F 6.8 °F 1029.0 in Calm     96 % 0.0 in
03:20 7.4 °F 6.8 °F 1029.0 in Calm     96 % 0.0 in
03:25 7.5 °F 6.9 °F 1029.0 in Calm     96 % 0.0 in
03:30 7.6 °F 7.2 °F 1029.0 in Calm     97 % 0.0 in
03:35 7.7 °F 7.3 °F 1029.0 in Calm     97 % 0.0 in
03:40 7.8 °F 7.3 °F 1029.0 in Calm     97 % 0.0 in
03:45 7.8 °F 7.3 °F 1029.0 in Calm     97 % 0.0 in
03:50 7.9 °F 7.4 °F 1029.0 in Calm     97 % 0.0 in
03:55 7.9 °F 7.4 °F 1029.0 in Calm     97 % 0.0 in
04:00 8.0 °F 7.6 °F 1029.0 in Calm     97 % 0.0 in
04:05 8.0 °F 7.6 °F 1029.0 in Calm     97 % 0.0 in
04:10 8.1 °F 7.7 °F 1029.0 in Calm     97 % 0.0 in
04:15 8.2 °F 7.8 °F 1029.0 in Calm     97 % 0.0 in
04:20 8.2 °F 7.8 °F 1029.0 in Calm     97 % 0.0 in
04:25 8.2 °F 7.8 °F 1029.0 in Calm     97 % 0.0 in
04:30 8.3 °F 7.8 °F 1029.0 in Calm     97 % 0.0 in
04:35 8.3 °F 7.8 °F 1029.0 in Calm     97 % 0.0 in
04:40 8.3 °F 7.8 °F 1029.0 in Calm     97 % 0.0 in
04:45 8.3 °F 7.8 °F 1029.0 in Calm     97 % 0.0 in
04:50 8.4 °F 7.9 °F 1029.0 in Calm     97 % 0.0 in
04:55 8.4 °F 7.9 °F 1029.0 in Calm     97 % 0.0 in
05:00 8.4 °F 7.9 °F 1029.0 in Calm     97 % 0.0 in
05:05 8.4 °F 7.9 °F 1029.0 in Calm     97 % 0.0 in
05:10 8.4 °F 7.9 °F 1029.0 in Calm     97 % 0.0 in
05:15 8.4 °F 7.9 °F 1029.0 in Calm     97 % 0.0 in
05:20 8.4 °F 7.9 °F 1029.0 in Calm     97 % 0.0 in
05:25 8.4 °F 7.9 °F 1029.0 in Calm     97 % 0.0 in
05:30 8.5 °F 8.1 °F 1029.0 in Calm     97 % 0.0 in
05:35 8.5 °F 8.1 °F 1029.0 in Calm     97 % 0.0 in
05:40 8.5 °F 8.1 °F 1029.0 in Calm     97 % 0.0 in
05:45 8.5 °F 8.1 °F 1029.0 in Calm     97 % 0.0 in
05:50 8.4 °F 7.9 °F 1029.0 in Calm     97 % 0.0 in
05:55 8.4 °F 8.1 °F 1029.0 in Calm     98 % 0.0 in
06:00 8.4 °F 8.1 °F 1029.0 in Calm     98 % 0.3 in
06:02 8.4 °F 8.1 °F 1029.0 in Calm     98 % 0.3 in
06:07 8.4 °F 7.9 °F 1029.0 in Calm     97 % 0.3 in
06:12 8.4 °F 8.1 °F 1029.0 in Calm     98 % 0.3 in
06:17 8.4 °F 8.1 °F 1029.0 in Calm     98 % 0.3 in
06:22 8.4 °F 7.9 °F 1029.0 in Calm     97 % 0.3 in
06:27 8.3 °F 7.8 °F 1029.0 in Calm     97 % 0.3 in
06:32 8.3 °F 7.8 °F 1029.0 in Calm     97 % 0.3 in
06:37 8.3 °F 7.8 °F 1029.0 in Calm     97 % 0.3 in
06:42 8.3 °F 7.8 °F 1029.0 in Calm     97 % 0.3 in
06:47 8.3 °F 8.0 °F 1029.0 in Calm     98 % 0.3 in
06:52 8.3 °F 7.8 °F 1029.0 in Calm     97 % 0.3 in
06:57 8.3 °F 8.0 °F 1029.0 in Calm     98 % 0.3 in
07:02 8.3 °F 8.0 °F 1029.0 in Calm     98 % 0.0 in
07:07 8.4 °F 8.1 °F 1029.0 in Calm     98 % 0.0 in
07:12 8.4 °F 8.1 °F 1029.0 in Calm     98 % 0.0 in
07:17 8.4 °F 8.1 °F 1029.0 in Calm     98 % 0.0 in
07:22 8.4 °F 8.1 °F 1029.0 in Calm     98 % 0.0 in
07:27 8.4 °F 8.1 °F 1030.0 in Calm     98 % 0.0 in
07:32 8.4 °F 8.1 °F 1030.0 in Calm     98 % 0.0 in
07:37 8.4 °F 8.1 °F 1030.0 in Calm     98 % 0.0 in
07:42 8.4 °F 8.1 °F 1030.0 in Calm     98 % 0.0 in
07:47 8.4 °F 8.1 °F 1030.0 in Calm     98 % 0.0 in
07:52 8.4 °F 8.1 °F 1030.0 in Calm     98 % 0.0 in
07:57 8.5 °F 8.2 °F 1030.0 in Calm     98 % 0.0 in
08:02 8.5 °F 8.2 °F 1030.0 in Calm     98 % 0.0 in
08:07 8.5 °F 8.2 °F 1030.0 in Calm     98 % 0.0 in
08:12 8.6 °F 8.3 °F 1030.0 in Calm     98 % 0.0 in
08:17 8.6 °F 8.3 °F 1030.0 in Calm     98 % 0.0 in
08:22 8.6 °F 8.3 °F 1030.0 in Calm     98 % 0.0 in
08:27 8.7 °F 8.4 °F 1031.0 in Calm     98 % 0.0 in
08:32 8.8 °F 8.5 °F 1031.0 in Calm     98 % 0.0 in
08:37 8.9 °F 8.6 °F 1031.0 in Calm     98 % 0.0 in
08:42 9.0 °F 8.7 °F 1031.0 in Calm     98 % 0.0 in
08:47 9.1 °F 8.8 °F 1031.0 in Calm     98 % 0.0 in
08:52 9.2 °F 8.9 °F 1031.0 in Calm     98 % 0.0 in
08:57 9.2 °F 8.9 °F 1031.0 in Calm     98 % 0.0 in
09:02 9.3 °F 9.0 °F 1031.0 in Calm     98 % 0.0 in
09:07 9.3 °F 9.0 °F 1031.0 in Calm     98 % 0.0 in
09:12 9.5 °F 9.2 °F 1029.0 in Calm     98 % 0.0 in
09:17 9.6 °F 9.3 °F 1029.0 in Calm     98 % 0.0 in
09:22 9.6 °F 9.3 °F 1029.0 in Calm     98 % 0.0 in
09:27 9.7 °F 9.4 °F 1030.0 in Calm     98 % 0.0 in
09:29 9.7 °F 9.4 °F 1030.0 in Calm     98 % 0.0 in
09:34 9.8 °F 9.5 °F 1030.0 in Calm     98 % 0.0 in
09:39 10.0 °F 9.7 °F 1030.0 in Calm     98 % 0.0 in
09:44 10.0 °F 9.7 °F 1030.0 in Calm     98 % 0.0 in
09:49 10.3 °F 10.0 °F 1030.0 in Calm     98 % 0.0 in
09:54 10.5 °F 10.2 °F 1030.0 in Calm   1.8 mph 98 % 0.0 in
09:59 10.7 °F 10.4 °F 1030.0 in Calm   1.8 mph 98 % 0.0 in
10:04 10.8 °F 10.5 °F 1030.0 in Calm   1.8 mph 98 % 0.0 in
10:09 11.0 °F 10.7 °F 1030.0 in ESE 0.6 mph 4.0 mph 98 % 0.0 in
10:14 11.1 °F 10.8 °F 1030.0 in ESE 0.6 mph 4.0 mph 98 % 0.0 in
10:19 11.2 °F 10.9 °F 1030.0 in Calm     98 % 0.0 in
10:24 11.3 °F 11.0 °F 1030.0 in Calm     98 % 0.0 in
10:34 11.7 °F 11.4 °F 1030.0 in Calm     98 % 0.0 in
10:39 12.0 °F 11.7 °F 1030.0 in Calm     98 % 0.0 in
10:49 12.5 °F 12.2 °F 1030.0 in SSW 2.6 mph 5.5 mph 98 % 0.0 in
10:54 12.8 °F 12.5 °F 1029.0 in SSW 3.4 mph 5.5 mph 98 % 0.0 in
10:59 12.9 °F 12.6 °F 1029.0 in SSW 2.6 mph 4.7 mph 98 % 0.0 in
11:04 13.1 °F 12.8 °F 1029.0 in SSE 1.9 mph 4.0 mph 98 % 0.0 in
11:09 13.3 °F 13.0 °F 1029.0 in SE 1.9 mph 4.0 mph 98 % 0.0 in
11:14 13.5 °F 13.2 °F 1029.0 in South 3.1 mph 6.9 mph 98 % 0.0 in
11:19 13.7 °F 13.4 °F 1029.0 in SSW 4.2 mph 6.9 mph 98 % 0.0 in
11:24 14.0 °F 13.6 °F 1030.0 in SSW 4.8 mph 7.2 mph 97 % 0.0 in
11:29 14.5 °F 14.1 °F 1030.0 in SSW 4.8 mph 7.2 mph 97 % 0.0 in
11:34 15.0 °F 14.6 °F 1030.0 in SSW 4.7 mph 8.7 mph 97 % 0.0 in
11:39 15.3 °F 14.8 °F 1029.0 in SSW 4.2 mph 8.7 mph 97 % 0.0 in
11:44 15.7 °F 15.2 °F 1029.0 in South 3.4 mph 6.4 mph 97 % 0.0 in
11:49 16.1 °F 15.6 °F 1029.0 in SSE 3.7 mph 6.4 mph 97 % 0.0 in
11:54 16.5 °F 16.0 °F 1031.0 in SE 4.0 mph 6.1 mph 97 % 0.0 in
11:59 16.8 °F 16.2 °F 1031.0 in SE 3.9 mph 6.1 mph 96 % 0.0 in
12:04 17.1 °F 16.4 °F 1031.0 in SSE 4.0 mph 6.9 mph 96 % 0.0 in
12:09 17.4 °F 16.6 °F 1030.0 in SSE 4.7 mph 7.9 mph 95 % 0.0 in
12:14 17.8 °F 17.0 °F 1030.0 in SE 4.5 mph 7.9 mph 95 % 0.0 in
12:19 18.1 °F 17.1 °F 1030.0 in SSE 4.3 mph 7.2 mph 94 % 0.0 in
12:24 18.4 °F 17.2 °F 1030.0 in SSE 4.5 mph 7.2 mph 93 % 0.0 in
12:29 18.7 °F 17.6 °F 1030.0 in SSE 4.7 mph 6.9 mph 93 % 0.0 in
12:34 18.9 °F 17.6 °F 1030.0 in SSE 4.5 mph 8.7 mph 92 % 0.0 in
12:39 19.1 °F 17.6 °F 1030.0 in SSE 4.7 mph 8.7 mph 91 % 0.0 in
12:44 19.2 °F 17.3 °F 1030.0 in SE 4.2 mph 7.6 mph 89 % 0.0 in
12:49 19.2 °F 16.8 °F 1030.0 in ESE 3.1 mph 5.8 mph 86 % 0.0 in
12:54 19.4 °F 16.8 °F 1029.0 in SE 2.3 mph 5.8 mph 85 % 0.0 in
12:59 19.7 °F 17.1 °F 1029.0 in SSE 2.9 mph 5.8 mph 85 % 0.0 in
13:04 19.9 °F 17.1 °F 1029.0 in SSE 3.1 mph 6.9 mph 84 % 0.0 in
13:09 20.0 °F 16.6 °F 1029.0 in SE 3.1 mph 6.9 mph 81 % 0.0 in
13:14 20.2 °F 16.8 °F 1029.0 in SSE 4.0 mph 6.4 mph 81 % 0.0 in
13:16 20.3 °F 16.7 °F 1029.0 in SSE 3.9 mph 6.4 mph 80 % 0.0 in
13:21 20.5 °F 16.7 °F 1029.0 in SSE 3.5 mph 6.4 mph 79 % 0.0 in
13:26 20.6 °F 16.6 °F 1029.0 in SSE 2.9 mph 7.6 mph 78 % 0.0 in
13:28 20.6 °F 16.4 °F 1029.0 in SE 2.9 mph 7.6 mph 77 % 0.0 in
13:33 20.7 °F 16.3 °F 1029.0 in SE 3.9 mph 9.3 mph 76 % 0.0 in
13:38 20.7 °F 16.1 °F 1029.0 in ESE 4.0 mph 9.3 mph 75 % 0.0 in
13:43 20.8 °F 16.0 °F 1029.0 in ESE 4.3 mph 9.0 mph 74 % 0.0 in
13:48 20.9 °F 15.9 °F 1029.0 in SE 4.7 mph 8.7 mph 73 % 0.0 in
13:53 20.9 °F 15.7 °F 1029.0 in SE 3.7 mph 7.6 mph 72 % 0.0 in
13:58 21.0 °F 15.6 °F 1029.0 in SE 4.0 mph 7.6 mph 71 % 0.0 in
14:03 20.9 °F 15.4 °F 1029.0 in SE 4.3 mph 7.9 mph 71 % 0.0 in
14:08 20.8 °F 15.3 °F 1029.0 in SE 4.2 mph 7.9 mph 71 % 0.0 in
14:13 20.8 °F 15.3 °F 1029.0 in South 3.5 mph 7.9 mph 71 % 0.0 in
14:18 20.8 °F 15.1 °F 1029.0 in South 2.9 mph 6.1 mph 70 % 0.0 in
14:23 20.7 °F 14.8 °F 1028.0 in South 2.3 mph 5.0 mph 69 % 0.0 in
14:28 20.7 °F 14.8 °F 1028.0 in South 2.4 mph 5.5 mph 69 % 0.0 in
14:33 20.7 °F 14.8 °F 1028.0 in South 3.4 mph 5.5 mph 69 % 0.0 in
14:38 20.8 °F 14.9 °F 1028.0 in South 3.4 mph 6.4 mph 69 % 0.0 in
14:43 20.7 °F 15.1 °F 1028.0 in South 3.7 mph 6.9 mph 70 % 0.0 in
14:48 20.7 °F 15.1 °F 1028.0 in South 3.9 mph 10.1 mph 70 % 0.0 in
14:53 20.7 °F 15.3 °F 1028.0 in SSE 2.9 mph 10.1 mph 71 % 0.0 in
14:58 20.7 °F 15.3 °F 1028.0 in SE 3.2 mph 7.9 mph 71 % 0.0 in
15:03 20.8 °F 15.3 °F 1028.0 in SE 4.2 mph 7.6 mph 71 % 0.0 in
15:08 20.8 °F 15.1 °F 1027.0 in SSE 4.2 mph 7.6 mph 70 % 0.0 in
15:13 20.8 °F 15.1 °F 1027.0 in SSE 4.0 mph 8.7 mph 70 % 0.0 in
15:18 20.8 °F 14.9 °F 1027.0 in SE 4.2 mph 8.7 mph 69 % 0.0 in
15:23 20.7 °F 14.6 °F 1027.0 in SE 3.5 mph 7.9 mph 68 % 0.0 in
15:28 20.6 °F 14.5 °F 1027.0 in SSE 2.4 mph 6.9 mph 68 % 0.0 in
15:33 20.7 °F 14.6 °F 1027.0 in SSE 2.3 mph 5.5 mph 68 % 0.0 in
15:38 20.7 °F 14.6 °F 1028.0 in SSE 2.6 mph 5.8 mph 68 % 0.0 in
15:43 20.8 °F 14.7 °F 1028.0 in South 2.4 mph 5.8 mph 68 % 0.0 in
15:48 20.8 °F 14.7 °F 1028.0 in SSW 1.8 mph 5.8 mph 68 % 0.0 in
15:53 20.8 °F 14.9 °F 1028.0 in South 2.7 mph 7.9 mph 69 % 0.0 in
15:59 20.8 °F 14.9 °F 1028.0 in SSE 2.9 mph 7.9 mph 69 % 0.0 in
16:04 20.8 °F 14.9 °F 1028.0 in SSE 2.4 mph 5.0 mph 69 % 0.0 in
16:09 20.8 °F 14.9 °F 1028.0 in South 2.3 mph 5.0 mph 69 % 0.0 in
16:14 20.8 °F 14.9 °F 1028.0 in South 2.3 mph 4.7 mph 69 % 0.0 in
16:19 20.7 °F 14.8 °F 1028.0 in SSE 2.3 mph 5.5 mph 69 % 0.0 in
16:24 20.3 °F 14.4 °F 1028.0 in South 1.6 mph 5.5 mph 69 % 0.0 in
16:29 19.8 °F 14.2 °F 1028.0 in SW 1.1 mph 3.5 mph 70 % 0.0 in
16:34 19.4 °F 14.0 °F 1028.0 in SSW 1.9 mph 4.7 mph 71 % 0.0 in
16:39 19.2 °F 14.1 °F 1028.0 in SSW 1.9 mph 4.7 mph 72 % 0.0 in
16:44 18.9 °F 13.9 °F 1028.0 in SSW 1.1 mph 4.3 mph 73 % 0.0 in
16:49 18.6 °F 13.9 °F 1028.0 in WSW 1.1 mph 4.0 mph 74 % 0.0 in
16:54 18.4 °F 13.9 °F 1028.0 in WNW 0.5 mph 4.0 mph 75 % 0.0 in
16:59 18.1 °F 13.8 °F 1028.0 in NW 1.4 mph 4.0 mph 76 % 0.0 in
17:04 17.9 °F 14.0 °F 1028.0 in NW 3.5 mph 6.1 mph 78 % 0.0 in
17:09 17.7 °F 13.8 °F 1028.0 in NW 2.4 mph 6.1 mph 78 % 0.0 in
17:14 17.5 °F 13.8 °F 1028.0 in NNW 1.3 mph 6.1 mph 79 % 0.0 in
17:19 17.2 °F 13.7 °F 1028.0 in NNW 1.1 mph 5.5 mph 80 % 0.0 in
17:24 17.0 °F 13.5 °F 1028.0 in NW 2.1 mph 5.5 mph 80 % 0.0 in
17:29 16.9 °F 13.6 °F 1028.0 in NW 2.9 mph 5.0 mph 81 % 0.0 in
17:34 16.7 °F 13.6 °F 1028.0 in NW 2.4 mph 5.0 mph 82 % 0.0 in
17:39 16.5 °F 13.4 °F 1028.0 in NW 1.4 mph 6.4 mph 82 % 0.0 in
17:44 16.3 °F 13.4 °F 1028.0 in NW 1.0 mph 6.4 mph 83 % 0.0 in
17:49 16.2 °F 13.3 °F 1028.0 in NW 0.2 mph 1.8 mph 83 % 0.0 in
17:54 16.1 °F 13.4 °F 1028.0 in NW 0.2 mph 1.8 mph 84 % 0.0 in
17:59 15.9 °F 13.2 °F 1028.0 in NNW 0.3 mph 4.3 mph 84 % 0.0 in
18:04 15.8 °F 13.3 °F 1028.0 in NNW 0.5 mph 4.3 mph 85 % 0.0 in
18:09 15.6 °F 13.3 °F 1028.0 in NW 0.3 mph 2.6 mph 86 % 0.0 in
18:14 15.5 °F 13.2 °F 1028.0 in NW 0.6 mph 4.3 mph 86 % 0.0 in
18:19 15.4 °F 13.2 °F 1028.0 in NW 0.6 mph 4.3 mph 87 % 0.0 in
18:24 15.3 °F 13.2 °F 1028.0 in NW 0.8 mph 3.5 mph 87 % 0.0 in
18:25 15.3 °F 13.2 °F 1028.0 in NW 0.5 mph 3.5 mph 87 % 0.0 in
18:30 15.1 °F 12.9 °F 1028.0 in North 1.6 mph 4.0 mph 87 % 0.0 in
18:35 15.0 °F 13.0 °F 1028.0 in NNW 1.0 mph 4.0 mph 88 % 0.0 in
18:40 14.7 °F 12.7 °F 1028.0 in NW 0.2 mph 3.5 mph 88 % 0.0 in
18:45 14.6 °F 12.8 °F 1028.0 in Calm   5.0 mph 89 % 0.0 in
18:50 14.5 °F 12.7 °F 1028.0 in NW 1.0 mph 5.0 mph 89 % 0.0 in
18:55 14.3 °F 12.5 °F 1028.0 in NW 1.1 mph 5.0 mph 89 % 0.0 in
19:00 14.2 °F 12.4 °F 1028.0 in North 0.2 mph   89 % 0.0 in
19:05 14.0 °F 12.2 °F 1028.0 in Calm     89 % 0.0 in
19:10 13.9 °F 12.3 °F 1028.0 in Calm     90 % 0.0 in
19:15 13.7 °F 12.1 °F 1028.0 in Calm     90 % 0.0 in
19:25 13.5 °F 12.1 °F 1028.0 in Calm     91 % 0.0 in
19:30 13.3 °F 11.9 °F 1028.0 in Calm     91 % 0.0 in
19:35 13.2 °F 11.8 °F 1028.0 in Calm     91 % 0.0 in
19:40 13.1 °F 11.7 °F 1028.0 in Calm     91 % 0.0 in
19:44 13.1 °F 11.7 °F 1028.0 in Calm     91 % 0.0 in
19:49 12.9 °F 11.6 °F 1028.0 in Calm     92 % 0.0 in
19:54 12.8 °F 11.6 °F 1028.0 in Calm     92 % 0.0 in
19:59 12.7 °F 11.4 °F 1028.0 in Calm     92 % 0.0 in
20:04 12.6 °F 11.3 °F 1028.0 in Calm     92 % 0.0 in
20:09 12.5 °F 11.2 °F 1029.0 in Calm     92 % 0.0 in
20:14 12.4 °F 11.1 °F 1029.0 in Calm     92 % 0.0 in
20:19 12.3 °F 11.1 °F 1029.0 in Calm     92 % 0.0 in
20:24 12.2 °F 10.9 °F 1028.0 in Calm     92 % 0.0 in
20:29 12.1 °F 11.0 °F 1028.0 in Calm     93 % 0.0 in
20:34 12.0 °F 10.9 °F 1028.0 in Calm     93 % 0.0 in
20:39 12.0 °F 10.9 °F 1028.0 in NW 0.6 mph 1.4 mph 93 % 0.0 in
20:44 11.9 °F 10.8 °F 1028.0 in NW 0.5 mph 1.4 mph 93 % 0.0 in
20:49 11.8 °F 10.7 °F 1028.0 in Calm     93 % 0.0 in
20:54 11.7 °F 10.6 °F 1028.0 in Calm     93 % 0.0 in
20:59 11.6 °F 10.7 °F 1028.0 in Calm     94 % 0.0 in
21:04 11.5 °F 10.6 °F 1028.0 in Calm     94 % 0.0 in
21:09 11.4 °F 10.4 °F 1028.0 in Calm     94 % 0.0 in
21:11 11.4 °F 10.4 °F 1028.0 in Calm     94 % 0.0 in
21:14 11.3 °F 10.4 °F 1028.0 in Calm     94 % 0.0 in
21:19 11.2 °F 10.3 °F 1028.0 in Calm     94 % 0.0 in
21:24 11.2 °F 10.3 °F 1028.0 in Calm     94 % 0.0 in
21:29 11.1 °F 10.2 °F 1028.0 in Calm     94 % 0.0 in
21:34 11.0 °F 10.1 °F 1028.0 in Calm     94 % 0.0 in
21:39 10.9 °F 9.9 °F 1028.0 in Calm     94 % 0.0 in
21:44 10.8 °F 9.9 °F 1028.0 in Calm     94 % 0.0 in
21:49 10.8 °F 9.9 °F 1028.0 in Calm     94 % 0.0 in
21:54 10.7 °F 9.8 °F 1028.0 in Calm     94 % 0.0 in
22:00 10.6 °F 9.7 °F 1028.0 in Calm     94 % 0.0 in
22:05 10.5 °F 9.6 °F 1028.0 in Calm     94 % 0.0 in
22:10 10.4 °F 9.5 °F 1028.0 in Calm     94 % 0.0 in
22:15 10.3 °F 9.4 °F 1028.0 in Calm     94 % 0.0 in
22:20 10.2 °F 9.3 °F 1028.0 in Calm     94 % 0.0 in
22:25 10.1 °F 9.2 °F 1028.0 in Calm     94 % 0.0 in
22:30 10.0 °F 9.1 °F 1028.0 in Calm     94 % 0.0 in
22:35 9.9 °F 9.1 °F 1028.0 in Calm     95 % 0.0 in
22:40 9.9 °F 9.1 °F 1029.0 in Calm     95 % 0.0 in
22:45 9.8 °F 9.1 °F 1029.0 in Calm     95 % 0.0 in
22:50 9.7 °F 8.9 °F 1029.0 in Calm     95 % 0.0 in
22:55 9.6 °F 8.8 °F 1029.0 in Calm     95 % 0.0 in
23:00 9.6 °F 8.8 °F 1029.0 in Calm     95 % 0.0 in
23:05 9.5 °F 8.7 °F 1029.0 in Calm     95 % 0.0 in
23:10 9.4 °F 8.7 °F 1029.0 in North 0.2 mph   95 % 0.0 in
23:15 9.3 °F 8.6 °F 1029.0 in North 0.2 mph   95 % 0.0 in
23:20 9.3 °F 8.6 °F 1029.0 in Calm     95 % 0.0 in
23:25 9.2 °F 8.4 °F 1028.0 in Calm     95 % 0.0 in
23:30 9.1 °F 8.3 °F 1028.0 in Calm     95 % 0.0 in
23:31 9.1 °F 8.3 °F 1028.0 in Calm     95 % 0.0 in
23:36 9.0 °F 8.2 °F 1028.0 in Calm     95 % 0.0 in
23:41 9.0 °F 8.2 °F 1029.0 in Calm     95 % 0.0 in
23:46 8.9 °F 8.2 °F 1029.0 in Calm     95 % 0.0 in
23:51 8.8 °F 8.1 °F 1029.0 in Calm     95 % 0.0 in
23:56 8.7 °F 7.9 °F 1029.0 in Calm     95 % 0.0 in
Vremenska postaja Senovo
Podatki zbrani iz Weather Underground - 3 mb

Script developed by  Jim McMurry - jmcmurry@mwt.net Adapted for the template by  Wim van der Kuil - Leuven-Template.eu

Vremenski podatki so objavljeni na:

European Weather Network

WeatherCloud

Weather Underground

AWEKAS

HAMweather, WeatherForYou, PWS Weather

MapView

Geostik

Slovenia weather network

Oprema, ki se uporablja:

Vremenski program
Cumulus

Vremenski server
Asus

Cumulus

Asus